Time,TemperatureF,DewpointF,PressureIn,WindDirection,WindDirectionDegrees,WindSpeedMPH,WindSpeedGustMPH,Humidity,HourlyPrecipIn,Conditions,Clouds,dailyrainin,SolarRadiationWatts/m^2,SoftwareType,DateUTC
2013-08-21 00:04:00,62.0,61.0,-100.00,SE,145,0.0,0.0,98,0.00,,,0.00,0.000000,,2013-08-21 04:04:00,
2013-08-21 00:14:00,62.0,61.0,-100.00,SE,145,0.0,0.0,98,0.00,,,0.00,0.000000,,2013-08-21 04:14:00,
2013-08-21 00:44:00,61.0,61.0,-100.00,SW,219,0.0,0.0,99,0.00,,,0.00,0.000000,,2013-08-21 04:44:00,
2013-08-21 00:54:00,61.0,61.0,-100.00,SW,219,0.0,0.0,99,0.00,,,0.00,0.000000,,2013-08-21 04:54:00,
2013-08-21 01:02:00,61.0,61.0,-100.00,SW,219,0.0,0.0,99,0.00,,,0.00,0.000000,,2013-08-21 05:02:00,
2013-08-21 01:13:00,61.0,61.0,-100.00,SW,219,0.0,0.0,99,0.00,,,0.00,0.000000,,2013-08-21 05:13:00,
2013-08-21 01:43:00,60.0,60.0,-100.00,SSW,211,0.0,0.0,99,0.00,,,0.00,0.000000,,2013-08-21 05:43:00,
2013-08-21 01:52:00,60.0,60.0,-100.00,SSW,211,0.0,0.0,99,0.00,,,0.00,0.000000,,2013-08-21 05:52:00,
2013-08-21 02:02:00,60.0,60.0,-100.00,SSW,211,0.0,0.0,99,0.00,,,0.00,0.000000,,2013-08-21 06:02:00,
2013-08-21 02:12:00,60.0,60.0,-100.00,SSW,211,0.0,0.0,99,0.00,,,0.00,0.000000,,2013-08-21 06:12:00,
2013-08-21 02:42:00,60.0,60.0,-100.00,SW,224,0.0,1.0,100,0.00,,,0.00,0.000000,,2013-08-21 06:42:00,
2013-08-21 02:52:00,60.0,60.0,-100.00,SW,224,0.0,1.0,100,0.00,,,0.00,0.000000,,2013-08-21 06:52:00,
2013-08-21 03:02:00,60.0,60.0,-100.00,SW,224,0.0,1.0,100,0.00,,,0.00,0.000000,,2013-08-21 07:02:00,
2013-08-21 03:11:00,60.0,60.0,-100.00,SW,224,0.0,1.0,100,0.00,,,0.00,0.000000,,2013-08-21 07:11:00,
2013-08-21 03:42:00,60.0,60.0,-100.00,SE,132,1.0,3.0,100,0.00,,,0.00,0.000000,,2013-08-21 07:42:00,
2013-08-21 03:53:00,60.0,60.0,-100.00,SE,132,1.0,3.0,100,0.00,,,0.00,0.000000,,2013-08-21 07:53:00,
2013-08-21 04:03:00,60.0,60.0,-100.00,SE,132,1.0,3.0,100,0.00,,,0.00,0.000000,,2013-08-21 08:03:00,
2013-08-21 04:12:00,60.0,60.0,-100.00,SE,132,1.0,3.0,100,0.00,,,0.00,0.000000,,2013-08-21 08:12:00,
2013-08-21 04:43:00,60.0,60.0,-100.00,NNE,14,1.0,3.0,100,0.00,,,0.00,0.000000,,2013-08-21 08:43:00,
2013-08-21 04:53:00,60.0,60.0,-100.00,NNE,14,1.0,3.0,100,0.00,,,0.00,0.000000,,2013-08-21 08:53:00,
2013-08-21 05:01:00,60.0,60.0,-100.00,NNE,14,1.0,3.0,100,0.00,,,0.00,0.000000,,2013-08-21 09:01:00,
2013-08-21 05:11:00,60.0,60.0,-100.00,NNE,14,1.0,3.0,100,0.00,,,0.00,0.000000,,2013-08-21 09:11:00,
2013-08-21 05:43:00,60.0,60.0,-100.00,ENE,63,2.0,4.0,100,0.00,,,0.00,0.000000,,2013-08-21 09:43:00,
2013-08-21 05:54:00,60.0,60.0,-100.00,ENE,63,2.0,4.0,100,0.00,,,0.00,0.000000,,2013-08-21 09:54:00,
2013-08-21 06:03:00,60.0,60.0,-100.00,ENE,63,2.0,4.0,100,0.00,,,0.00,0.000000,,2013-08-21 10:03:00,
2013-08-21 06:13:00,60.0,60.0,-100.00,ENE,63,2.0,4.0,100,0.00,,,0.00,0.000000,,2013-08-21 10:13:00,
2013-08-21 06:43:00,60.0,60.0,-100.00,NE,41,1.0,4.0,100,0.00,,,0.00,0.000000,,2013-08-21 10:43:00,
2013-08-21 06:53:00,60.0,60.0,-100.00,NE,41,1.0,4.0,100,0.00,,,0.00,0.000000,,2013-08-21 10:53:00,
2013-08-21 07:03:00,60.0,60.0,-100.00,NE,41,1.0,4.0,100,0.00,,,0.00,0.000000,,2013-08-21 11:03:00,
2013-08-21 07:12:00,60.0,60.0,-100.00,NE,41,1.0,4.0,100,0.00,,,0.00,0.000000,,2013-08-21 11:12:00,
2013-08-21 07:42:00,60.0,60.0,-100.00,North,350,2.0,4.0,100,0.00,,,0.00,7.000000,,2013-08-21 11:42:00,
2013-08-21 07:53:00,60.0,60.0,-100.00,North,350,2.0,4.0,100,0.00,,,0.00,7.000000,,2013-08-21 11:53:00,
2013-08-21 08:01:00,60.0,60.0,-100.00,North,350,2.0,4.0,100,0.00,,,0.00,7.000000,,2013-08-21 12:01:00,
2013-08-21 08:12:00,60.0,60.0,-100.00,North,350,2.0,4.0,100,0.00,,,0.00,7.000000,,2013-08-21 12:12:00,
2013-08-21 08:42:00,61.0,61.0,-100.00,NNW,333,2.0,4.0,100,0.01,,,0.01,63.000000,,2013-08-21 12:42:00,
2013-08-21 08:52:00,61.0,61.0,-100.00,NNW,333,2.0,4.0,100,0.01,,,0.01,63.000000,,2013-08-21 12:52:00,
2013-08-21 09:02:00,61.0,61.0,-100.00,NNW,333,2.0,4.0,100,0.01,,,0.01,63.000000,,2013-08-21 13:02:00,
2013-08-21 09:12:00,61.0,61.0,-100.00,NNW,333,2.0,4.0,100,0.01,,,0.01,63.000000,,2013-08-21 13:12:00,
2013-08-21 09:42:00,67.0,66.0,-100.00,North,10,3.0,5.0,97,0.00,,,0.01,259.000000,,2013-08-21 13:42:00,
2013-08-21 09:52:00,67.0,66.0,-100.00,North,10,3.0,5.0,97,0.00,,,0.01,259.000000,,2013-08-21 13:52:00,
2013-08-21 10:02:00,67.0,66.0,-100.00,North,10,3.0,5.0,97,0.00,,,0.01,259.000000,,2013-08-21 14:02:00,
2013-08-21 10:12:00,67.0,66.0,-100.00,North,10,3.0,5.0,97,0.00,,,0.01,259.000000,,2013-08-21 14:12:00,
2013-08-21 10:42:00,71.0,68.0,-100.00,SSE,159,7.0,12.0,91,0.00,,,0.01,364.000000,,2013-08-21 14:42:00,
2013-08-21 10:52:00,71.0,68.0,-100.00,SSE,159,7.0,12.0,91,0.00,,,0.01,364.000000,,2013-08-21 14:52:00,
2013-08-21 11:01:00,71.0,68.0,-100.00,SSE,159,7.0,12.0,91,0.00,,,0.01,364.000000,,2013-08-21 15:01:00,
2013-08-21 11:11:00,71.0,68.0,-100.00,SSE,159,7.0,12.0,91,0.00,,,0.01,364.000000,,2013-08-21 15:11:00,
2013-08-21 11:43:00,77.0,66.0,-100.00,SSE,167,5.0,12.0,69,0.00,,,0.01,601.000000,,2013-08-21 15:43:00,
2013-08-21 11:55:00,77.0,66.0,-100.00,SSE,167,5.0,12.0,69,0.00,,,0.01,601.000000,,2013-08-21 15:55:00,
2013-08-21 12:04:00,77.0,66.0,-100.00,SSE,167,5.0,12.0,69,0.00,,,0.01,601.000000,,2013-08-21 16:04:00,
2013-08-21 12:13:00,77.0,66.0,-100.00,SSE,167,5.0,12.0,69,0.00,,,0.01,601.000000,,2013-08-21 16:13:00,
2013-08-21 12:43:00,80.0,68.0,-100.00,SW,219,5.0,9.0,67,0.00,,,0.01,616.000000,,2013-08-21 16:43:00,
2013-08-21 12:53:00,80.0,68.0,-100.00,SW,219,5.0,9.0,67,0.00,,,0.01,616.000000,,2013-08-21 16:53:00,
2013-08-21 13:04:00,80.0,68.0,-100.00,SW,219,5.0,9.0,67,0.00,,,0.01,616.000000,,2013-08-21 17:04:00,
2013-08-21 13:13:00,80.0,68.0,-100.00,SW,219,5.0,9.0,67,0.00,,,0.01,616.000000,,2013-08-21 17:13:00,
2013-08-21 13:43:00,80.0,69.0,-100.00,WSW,255,6.0,10.0,69,0.00,,,0.01,521.000000,,2013-08-21 17:43:00,
2013-08-21 13:53:00,80.0,69.0,-100.00,WSW,255,6.0,10.0,69,0.00,,,0.01,521.000000,,2013-08-21 17:53:00,
2013-08-21 14:03:00,80.0,69.0,-100.00,WSW,255,6.0,10.0,69,0.00,,,0.01,521.000000,,2013-08-21 18:03:00,
2013-08-21 14:12:00,80.0,69.0,-100.00,WSW,255,6.0,10.0,69,0.00,,,0.01,521.000000,,2013-08-21 18:12:00,
2013-08-21 14:42:00,80.0,69.0,-100.00,West,259,5.0,11.0,69,0.00,,,0.01,494.000000,,2013-08-21 18:42:00,
2013-08-21 14:52:00,80.0,69.0,-100.00,West,259,5.0,11.0,69,0.00,,,0.01,494.000000,,2013-08-21 18:52:00,
2013-08-21 15:01:00,80.0,69.0,-100.00,West,259,5.0,11.0,69,0.00,,,0.01,494.000000,,2013-08-21 19:01:00,
2013-08-21 15:12:00,80.0,69.0,-100.00,West,259,5.0,11.0,69,0.00,,,0.01,494.000000,,2013-08-21 19:12:00,
2013-08-21 15:42:00,81.0,69.0,-100.00,SW,236,5.0,10.0,66,0.00,,,0.01,507.000000,,2013-08-21 19:42:00,
2013-08-21 15:53:00,81.0,69.0,-100.00,SW,236,5.0,10.0,66,0.00,,,0.01,507.000000,,2013-08-21 19:53:00,
2013-08-21 16:03:00,81.0,69.0,-100.00,SW,236,5.0,10.0,66,0.00,,,0.01,507.000000,,2013-08-21 20:03:00,
2013-08-21 16:11:00,81.0,69.0,-100.00,SW,236,5.0,10.0,66,0.00,,,0.01,507.000000,,2013-08-21 20:11:00,
2013-08-21 16:43:00,80.0,67.0,-100.00,SW,232,4.0,6.0,65,0.00,,,0.01,362.000000,,2013-08-21 20:43:00,
2013-08-21 16:52:00,80.0,67.0,-100.00,SW,232,4.0,6.0,65,0.00,,,0.01,362.000000,,2013-08-21 20:52:00,
2013-08-21 17:02:00,80.0,67.0,-100.00,SW,232,4.0,6.0,65,0.00,,,0.01,362.000000,,2013-08-21 21:02:00,
2013-08-21 17:12:00,80.0,67.0,-100.00,SW,232,4.0,6.0,65,0.00,,,0.01,362.000000,,2013-08-21 21:12:00,
2013-08-21 17:45:00,80.0,69.0,-100.00,SSW,204,3.0,6.0,70,0.00,,,0.01,247.000000,,2013-08-21 21:45:00,
2013-08-21 17:55:00,80.0,69.0,-100.00,SSW,204,3.0,6.0,70,0.00,,,0.01,247.000000,,2013-08-21 21:55:00,
2013-08-21 18:04:00,80.0,69.0,-100.00,SSW,204,3.0,6.0,70,0.00,,,0.01,247.000000,,2013-08-21 22:04:00,
2013-08-21 18:14:00,80.0,69.0,-100.00,SSW,204,3.0,6.0,70,0.00,,,0.01,247.000000,,2013-08-21 22:14:00,
2013-08-21 18:44:00,76.0,62.0,-100.00,South,171,4.0,10.0,62,0.00,,,0.01,282.000000,,2013-08-21 22:44:00,
2013-08-21 18:53:00,76.0,62.0,-100.00,South,171,4.0,10.0,62,0.00,,,0.01,282.000000,,2013-08-21 22:53:00,
2013-08-21 19:04:00,76.0,62.0,-100.00,South,171,4.0,10.0,62,0.00,,,0.01,282.000000,,2013-08-21 23:04:00,
2013-08-21 19:13:00,76.0,62.0,-100.00,South,171,4.0,10.0,62,0.00,,,0.01,282.000000,,2013-08-21 23:13:00,
2013-08-21 19:43:00,67.0,57.0,-100.00,WSW,239,11.0,20.0,71,0.00,,,0.01,24.000000,,2013-08-21 23:43:00,
2013-08-21 19:53:00,67.0,57.0,-100.00,WSW,239,11.0,20.0,71,0.00,,,0.01,24.000000,,2013-08-21 23:53:00,
2013-08-21 20:03:00,67.0,57.0,-100.00,WSW,239,11.0,20.0,71,0.00,,,0.01,24.000000,,2013-08-22 00:03:00,
2013-08-21 20:12:00,67.0,57.0,-100.00,WSW,239,11.0,20.0,71,0.00,,,0.01,24.000000,,2013-08-22 00:12:00,
2013-08-21 20:42:00,64.0,62.0,-100.00,SSE,167,6.0,19.0,93,0.68,,,0.69,0.000000,,2013-08-22 00:42:00,
2013-08-21 20:52:00,64.0,62.0,-100.00,SSE,167,6.0,19.0,93,0.68,,,0.69,0.000000,,2013-08-22 00:52:00,
2013-08-21 21:02:00,64.0,62.0,-100.00,SSE,167,6.0,19.0,93,0.68,,,0.69,0.000000,,2013-08-22 01:02:00,
2013-08-21 21:12:00,64.0,62.0,-100.00,SSE,167,6.0,19.0,93,0.68,,,0.69,0.000000,,2013-08-22 01:12:00,
2013-08-21 21:42:00,65.0,63.0,-100.00,ESE,110,6.0,13.0,93,0.07,,,0.76,0.000000,,2013-08-22 01:42:00,
2013-08-21 21:52:00,65.0,63.0,-100.00,ESE,110,6.0,13.0,93,0.07,,,0.76,0.000000,,2013-08-22 01:52:00,
2013-08-21 22:03:00,65.0,63.0,-100.00,ESE,110,6.0,13.0,93,0.07,,,0.76,0.000000,,2013-08-22 02:03:00,
2013-08-21 22:12:00,65.0,63.0,-100.00,ESE,110,6.0,13.0,93,0.07,,,0.76,0.000000,,2013-08-22 02:12:00,
2013-08-21 22:53:00,65.0,62.0,-100.00,South,172,9.0,12.0,91,0.04,,,0.80,0.000000,,2013-08-22 02:53:00,
2013-08-21 23:02:00,65.0,62.0,-100.00,South,172,9.0,12.0,91,0.04,,,0.80,0.000000,,2013-08-22 03:02:00,
2013-08-21 23:12:00,65.0,62.0,-100.00,South,172,9.0,12.0,91,0.04,,,0.80,0.000000,,2013-08-22 03:12:00,
2013-08-21 23:45:00,65.0,62.0,-100.00,South,180,6.0,13.0,90,0.00,,,0.80,0.000000,,2013-08-22 03:45:00,
2013-08-21 23:54:00,65.0,62.0,-100.00,South,180,6.0,13.0,90,0.00,,,0.80,0.000000,,2013-08-22 03:54:00,